sensor_id;sensor_type;location;lat;lon;timestamp;pressure;altitude;pressure_sealevel;temperature;humidity
4199;BME280;2113;50.946;14.610;2022-09-21T00:01:06;97751.34;;;10.50;66.78
4199;BME280;2113;50.946;14.610;2022-09-21T00:03:35;97745.13;;;10.55;66.72
4199;BME280;2113;50.946;14.610;2022-09-21T00:06:06;97746.72;;;10.61;66.64
4199;BME280;2113;50.946;14.610;2022-09-21T00:08:34;97751.97;;;10.58;66.71
4199;BME280;2113;50.946;14.610;2022-09-21T00:11:03;97745.94;;;10.57;66.62
4199;BME280;2113;50.946;14.610;2022-09-21T00:13:32;97751.13;;;10.57;66.86
4199;BME280;2113;50.946;14.610;2022-09-21T00:16:04;97751.97;;;10.58;66.69
4199;BME280;2113;50.946;14.610;2022-09-21T00:18:33;97755.66;;;10.51;66.80
4199;BME280;2113;50.946;14.610;2022-09-21T00:21:07;97746.88;;;10.55;67.09
4199;BME280;2113;50.946;14.610;2022-09-21T00:23:35;97747.50;;;10.65;66.66
4199;BME280;2113;50.946;14.610;2022-09-21T00:26:06;97752.59;;;10.68;66.72
4199;BME280;2113;50.946;14.610;2022-09-21T00:28:34;97741.91;;;10.46;67.04
4199;BME280;2113;50.946;14.610;2022-09-21T00:31:03;97760.97;;;10.45;67.00
4199;BME280;2113;50.946;14.610;2022-09-21T00:33:31;97753.31;;;10.40;67.22
4199;BME280;2113;50.946;14.610;2022-09-21T00:36:03;97760.06;;;10.10;68.14
4199;BME280;2113;50.946;14.610;2022-09-21T00:38:33;97763.06;;;9.93;68.45
4199;BME280;2113;50.946;14.610;2022-09-21T00:41:02;97758.44;;;10.06;68.14
4199;BME280;2113;50.946;14.610;2022-09-21T00:43:33;97759.66;;;10.28;67.78
4199;BME280;2113;50.946;14.610;2022-09-21T00:46:03;97767.97;;;10.43;67.39
4199;BME280;2113;50.946;14.610;2022-09-21T00:48:32;97774.91;;;10.44;67.03
4199;BME280;2113;50.946;14.610;2022-09-21T00:51:02;97766.50;;;10.32;67.36
4199;BME280;2113;50.946;14.610;2022-09-21T00:53:33;97767.09;;;10.44;68.01
4199;BME280;2113;50.946;14.610;2022-09-21T00:56:01;97774.78;;;10.47;67.09
4199;BME280;2113;50.946;14.610;2022-09-21T00:58:33;97772.88;;;10.55;67.15
4199;BME280;2113;50.946;14.610;2022-09-21T01:01:03;97770.19;;;10.58;67.04
4199;BME280;2113;50.946;14.610;2022-09-21T01:03:32;97771.38;;;10.45;66.74
4199;BME280;2113;50.946;14.610;2022-09-21T01:05:59;97773.94;;;10.46;66.89
4199;BME280;2113;50.946;14.610;2022-09-21T01:08:28;97764.34;;;10.12;67.55
4199;BME280;2113;50.946;14.610;2022-09-21T01:11:15;97771.31;;;10.10;67.71
4199;BME280;2113;50.946;14.610;2022-09-21T01:13:53;97773.09;;;10.08;67.68
4199;BME280;2113;50.946;14.610;2022-09-21T01:16:28;97774.44;;;9.87;68.46
4199;BME280;2113;50.946;14.610;2022-09-21T01:19:06;97774.09;;;10.03;68.15
4199;BME280;2113;50.946;14.610;2022-09-21T01:21:46;97778.19;;;9.74;68.72
4199;BME280;2113;50.946;14.610;2022-09-21T01:24:43;97767.97;;;9.68;69.21
4199;BME280;2113;50.946;14.610;2022-09-21T01:27:47;97771.69;;;9.56;69.65
4199;BME280;2113;50.946;14.610;2022-09-21T01:30:20;97774.03;;;9.67;69.47
4199;BME280;2113;50.946;14.610;2022-09-21T01:32:54;97774.16;;;9.60;69.43
4199;BME280;2113;50.946;14.610;2022-09-21T01:35:27;97781.09;;;9.62;69.36
4199;BME280;2113;50.946;14.610;2022-09-21T01:38:00;97781.47;;;9.41;69.96
4199;BME280;2113;50.946;14.610;2022-09-21T01:40:31;97779.19;;;9.26;70.48
4199;BME280;2113;50.946;14.610;2022-09-21T01:43:02;97781.22;;;9.13;70.53
4199;BME280;2113;50.946;14.610;2022-09-21T01:45:35;97783.91;;;9.07;70.44
4199;BME280;2113;50.946;14.610;2022-09-21T01:48:06;97786.50;;;9.07;71.05
4199;BME280;2113;50.946;14.610;2022-09-21T01:50:36;97780.59;;;9.00;71.00
4199;BME280;2113;50.946;14.610;2022-09-21T01:53:09;97788.34;;;9.02;70.75
4199;BME280;2113;50.946;14.610;2022-09-21T01:55:41;97786.84;;;8.89;71.42
4199;BME280;2113;50.946;14.610;2022-09-21T01:58:17;97790.31;;;8.88;71.63
4199;BME280;2113;50.946;14.610;2022-09-21T02:00:49;97787.53;;;8.98;71.51
4199;BME280;2113;50.946;14.610;2022-09-21T02:03:20;97788.69;;;8.82;71.51
4199;BME280;2113;50.946;14.610;2022-09-21T02:05:52;97785.94;;;8.91;71.57
4199;BME280;2113;50.946;14.610;2022-09-21T02:08:20;97785.78;;;8.99;71.02
4199;BME280;2113;50.946;14.610;2022-09-21T02:10:50;97781.94;;;9.20;70.87
4199;BME280;2113;50.946;14.610;2022-09-21T02:13:20;97781.44;;;9.45;70.04
4199;BME280;2113;50.946;14.610;2022-09-21T02:16:02;97783.50;;;9.29;69.97
4199;BME280;2113;50.946;14.610;2022-09-21T02:18:42;97784.53;;;9.18;70.42
4199;BME280;2113;50.946;14.610;2022-09-21T02:21:20;97790.47;;;9.27;70.21
4199;BME280;2113;50.946;14.610;2022-09-21T02:23:57;97791.47;;;9.18;70.46
4199;BME280;2113;50.946;14.610;2022-09-21T02:26:32;97800.84;;;9.27;70.32
4199;BME280;2113;50.946;14.610;2022-09-21T02:29:10;97803.78;;;9.08;70.45
4199;BME280;2113;50.946;14.610;2022-09-21T02:31:48;97803.53;;;9.20;70.60
4199;BME280;2113;50.946;14.610;2022-09-21T02:34:23;97804.63;;;9.09;70.54
4199;BME280;2113;50.946;14.610;2022-09-21T02:36:59;97801.38;;;8.97;70.24
4199;BME280;2113;50.946;14.610;2022-09-21T02:39:33;97803.97;;;8.97;70.47
4199;BME280;2113;50.946;14.610;2022-09-21T02:42:06;97802.69;;;9.20;69.90
4199;BME280;2113;50.946;14.610;2022-09-21T02:44:39;97798.66;;;9.04;70.55
4199;BME280;2113;50.946;14.610;2022-09-21T02:47:14;97799.47;;;9.06;70.39
4199;BME280;2113;50.946;14.610;2022-09-21T02:49:47;97802.41;;;8.89;70.51
4199;BME280;2113;50.946;14.610;2022-09-21T02:52:17;97805.88;;;8.88;70.61
4199;BME280;2113;50.946;14.610;2022-09-21T02:54:48;97802.28;;;8.96;70.46
4199;BME280;2113;50.946;14.610;2022-09-21T02:57:18;97810.13;;;8.92;70.32
4199;BME280;2113;50.946;14.610;2022-09-21T02:59:47;97812.09;;;8.79;70.57
4199;BME280;2113;50.946;14.610;2022-09-21T03:02:16;97815.38;;;8.89;70.07
4199;BME280;2113;50.946;14.610;2022-09-21T03:04:46;97823.72;;;9.06;69.76
4199;BME280;2113;50.946;14.610;2022-09-21T03:07:16;97822.41;;;8.82;70.38
4199;BME280;2113;50.946;14.610;2022-09-21T03:09:43;97820.53;;;8.90;70.13
4199;BME280;2113;50.946;14.610;2022-09-21T03:12:12;97822.81;;;9.07;70.03
4199;BME280;2113;50.946;14.610;2022-09-21T03:14:40;97818.56;;;9.03;70.38
4199;BME280;2113;50.946;14.610;2022-09-21T03:17:08;97824.28;;;9.20;70.11
4199;BME280;2113;50.946;14.610;2022-09-21T03:19:37;97827.53;;;9.32;69.84
4199;BME280;2113;50.946;14.610;2022-09-21T03:22:05;97822.47;;;9.26;70.11
4199;BME280;2113;50.946;14.610;2022-09-21T03:24:33;97827.66;;;9.26;69.80
4199;BME280;2113;50.946;14.610;2022-09-21T03:27:13;97827.53;;;9.32;70.16
4199;BME280;2113;50.946;14.610;2022-09-21T03:29:41;97811.47;;;9.56;69.64
4199;BME280;2113;50.946;14.610;2022-09-21T03:32:10;97821.69;;;9.64;69.43
4199;BME280;2113;50.946;14.610;2022-09-21T03:34:41;97816.13;;;9.83;68.86
4199;BME280;2113;50.946;14.610;2022-09-21T03:37:10;97816.94;;;9.85;68.84
4199;BME280;2113;50.946;14.610;2022-09-21T03:39:38;97823.81;;;9.86;68.60
4199;BME280;2113;50.946;14.610;2022-09-21T03:42:05;97824.06;;;9.75;68.46
4199;BME280;2113;50.946;14.610;2022-09-21T03:44:35;97817.63;;;9.91;68.62
4199;BME280;2113;50.946;14.610;2022-09-21T03:47:04;97826.22;;;9.95;68.44
4199;BME280;2113;50.946;14.610;2022-09-21T03:49:32;97825.72;;;9.79;68.69
4199;BME280;2113;50.946;14.610;2022-09-21T03:52:02;97824.88;;;9.78;68.69
4199;BME280;2113;50.946;14.610;2022-09-21T03:54:30;97824.69;;;9.86;68.66
4199;BME280;2113;50.946;14.610;2022-09-21T03:56:58;97828.38;;;9.76;68.51
4199;BME280;2113;50.946;14.610;2022-09-21T03:59:25;97836.25;;;9.73;68.83
4199;BME280;2113;50.946;14.610;2022-09-21T04:01:53;97831.88;;;9.75;68.85
4199;BME280;2113;50.946;14.610;2022-09-21T04:04:21;97835.34;;;9.72;69.03
4199;BME280;2113;50.946;14.610;2022-09-21T04:06:49;97838.09;;;9.66;69.32
4199;BME280;2113;50.946;14.610;2022-09-21T04:09:18;97838.19;;;9.63;69.29
4199;BME280;2113;50.946;14.610;2022-09-21T04:11:46;97844.13;;;9.67;69.52
4199;BME280;2113;50.946;14.610;2022-09-21T04:14:14;97833.09;;;9.57;69.54
4199;BME280;2113;50.946;14.610;2022-09-21T04:16:43;97841.59;;;9.65;69.68
4199;BME280;2113;50.946;14.610;2022-09-21T04:19:11;97842.94;;;9.41;70.44
4199;BME280;2113;50.946;14.610;2022-09-21T04:21:39;97841.03;;;9.49;70.72
4199;BME280;2113;50.946;14.610;2022-09-21T04:24:06;97841.16;;;9.43;70.41
4199;BME280;2113;50.946;14.610;2022-09-21T04:26:36;97846.63;;;9.29;71.60
4199;BME280;2113;50.946;14.610;2022-09-21T04:29:06;97847.16;;;9.47;71.10
4199;BME280;2113;50.946;14.610;2022-09-21T04:31:34;97844.44;;;9.51;70.89
4199;BME280;2113;50.946;14.610;2022-09-21T04:34:02;97849.59;;;9.54;71.25
4199;BME280;2113;50.946;14.610;2022-09-21T04:36:30;97845.81;;;9.69;70.64
4199;BME280;2113;50.946;14.610;2022-09-21T04:39:02;97843.25;;;9.68;70.78
4199;BME280;2113;50.946;14.610;2022-09-21T04:41:30;97859.13;;;9.54;71.22
4199;BME280;2113;50.946;14.610;2022-09-21T04:44:00;97854.47;;;9.70;70.87
4199;BME280;2113;50.946;14.610;2022-09-21T04:46:28;97848.91;;;9.88;70.38
4199;BME280;2113;50.946;14.610;2022-09-21T04:48:56;97856.75;;;9.84;70.32
4199;BME280;2113;50.946;14.610;2022-09-21T04:51:24;97846.38;;;9.84;70.45
4199;BME280;2113;50.946;14.610;2022-09-21T04:53:52;97852.44;;;9.84;70.13
4199;BME280;2113;50.946;14.610;2022-09-21T04:56:20;97855.06;;;9.84;70.31
4199;BME280;2113;50.946;14.610;2022-09-21T04:58:48;97854.09;;;9.88;70.13
4199;BME280;2113;50.946;14.610;2022-09-21T05:01:17;97857.69;;;9.83;70.71
4199;BME280;2113;50.946;14.610;2022-09-21T05:03:45;97855.47;;;9.63;71.09
4199;BME280;2113;50.946;14.610;2022-09-21T05:06:13;97855.00;;;9.86;70.50
4199;BME280;2113;50.946;14.610;2022-09-21T05:08:41;97863.34;;;9.59;71.36
4199;BME280;2113;50.946;14.610;2022-09-21T05:11:27;97852.78;;;9.69;71.47
4199;BME280;2113;50.946;14.610;2022-09-21T05:13:55;97862.28;;;9.68;71.41
4199;BME280;2113;50.946;14.610;2022-09-21T05:16:24;97861.59;;;10.02;70.88
4199;BME280;2113;50.946;14.610;2022-09-21T05:18:52;97858.94;;;10.05;70.43
4199;BME280;2113;50.946;14.610;2022-09-21T05:21:21;97862.78;;;9.86;71.05
4199;BME280;2113;50.946;14.610;2022-09-21T05:23:49;97858.06;;;10.05;70.65
4199;BME280;2113;50.946;14.610;2022-09-21T05:26:18;97857.50;;;9.90;70.99
4199;BME280;2113;50.946;14.610;2022-09-21T05:28:46;97859.44;;;9.82;71.42
4199;BME280;2113;50.946;14.610;2022-09-21T05:31:41;97871.75;;;10.13;70.50
4199;BME280;2113;50.946;14.610;2022-09-21T05:34:22;97870.69;;;10.20;70.25
4199;BME280;2113;50.946;14.610;2022-09-21T05:37:04;97869.94;;;10.16;70.34
4199;BME280;2113;50.946;14.610;2022-09-21T05:39:34;97871.00;;;10.06;70.59
4199;BME280;2113;50.946;14.610;2022-09-21T05:42:03;97872.47;;;10.18;70.25
4199;BME280;2113;50.946;14.610;2022-09-21T05:44:32;97874.84;;;10.30;70.22
4199;BME280;2113;50.946;14.610;2022-09-21T05:47:07;97883.19;;;10.45;69.84
4199;BME280;2113;50.946;14.610;2022-09-21T05:49:46;97885.88;;;10.40;69.98
4199;BME280;2113;50.946;14.610;2022-09-21T05:52:21;97879.38;;;10.60;69.73
4199;BME280;2113;50.946;14.610;2022-09-21T05:54:59;97882.97;;;10.54;69.51
4199;BME280;2113;50.946;14.610;2022-09-21T05:57:37;97889.56;;;10.69;69.43
4199;BME280;2113;50.946;14.610;2022-09-21T06:00:14;97890.22;;;10.77;68.96
4199;BME280;2113;50.946;14.610;2022-09-21T06:02:58;97895.69;;;10.66;69.17
4199;BME280;2113;50.946;14.610;2022-09-21T06:05:31;97893.53;;;10.84;69.36
4199;BME280;2113;50.946;14.610;2022-09-21T06:07:59;97897.00;;;10.83;69.22
4199;BME280;2113;50.946;14.610;2022-09-21T06:10:31;97894.84;;;11.00;68.45
4199;BME280;2113;50.946;14.610;2022-09-21T06:13:00;97902.22;;;10.83;69.08
4199;BME280;2113;50.946;14.610;2022-09-21T06:15:28;97886.56;;;10.84;69.55
4199;BME280;2113;50.946;14.610;2022-09-21T06:17:57;97894.03;;;10.98;69.27
4199;BME280;2113;50.946;14.610;2022-09-21T06:20:25;97896.47;;;11.04;69.15
4199;BME280;2113;50.946;14.610;2022-09-21T06:22:59;97902.16;;;10.86;69.51
4199;BME280;2113;50.946;14.610;2022-09-21T06:25:27;97894.59;;;10.75;70.13
4199;BME280;2113;50.946;14.610;2022-09-21T06:27:56;97898.41;;;10.96;69.85
4199;BME280;2113;50.946;14.610;2022-09-21T06:30:27;97895.81;;;10.96;69.92
4199;BME280;2113;50.946;14.610;2022-09-21T06:32:58;97897.22;;;10.73;70.36
4199;BME280;2113;50.946;14.610;2022-09-21T06:35:28;97897.34;;;11.05;69.73
4199;BME280;2113;50.946;14.610;2022-09-21T06:37:57;97896.00;;;11.23;68.91
4199;BME280;2113;50.946;14.610;2022-09-21T06:40:26;97894.38;;;11.19;69.03
4199;BME280;2113;50.946;14.610;2022-09-21T06:42:55;97897.88;;;11.17;69.06
4199;BME280;2113;50.946;14.610;2022-09-21T06:45:24;97900.97;;;10.99;69.78
4199;BME280;2113;50.946;14.610;2022-09-21T06:47:52;97905.16;;;11.38;68.86
4199;BME280;2113;50.946;14.610;2022-09-21T06:50:21;97902.28;;;11.48;68.54
4199;BME280;2113;50.946;14.610;2022-09-21T06:52:49;97905.59;;;11.21;69.63
4199;BME280;2113;50.946;14.610;2022-09-21T06:55:17;97908.41;;;11.13;69.73
4199;BME280;2113;50.946;14.610;2022-09-21T06:57:45;97904.47;;;11.31;69.68
4199;BME280;2113;50.946;14.610;2022-09-21T07:00:14;97901.75;;;11.35;69.25
4199;BME280;2113;50.946;14.610;2022-09-21T07:02:42;97906.16;;;11.65;68.91
4199;BME280;2113;50.946;14.610;2022-09-21T07:05:11;97911.25;;;11.69;68.81
4199;BME280;2113;50.946;14.610;2022-09-21T07:07:41;97911.88;;;11.46;69.18
4199;BME280;2113;50.946;14.610;2022-09-21T07:10:09;97912.72;;;11.80;68.94
4199;BME280;2113;50.946;14.610;2022-09-21T07:12:44;97915.50;;;12.05;68.15
4199;BME280;2113;50.946;14.610;2022-09-21T07:15:12;97917.75;;;12.17;67.42
4199;BME280;2113;50.946;14.610;2022-09-21T07:17:41;97917.19;;;12.36;66.94
4199;BME280;2113;50.946;14.610;2022-09-21T07:20:17;97918.19;;;12.31;66.09
4199;BME280;2113;50.946;14.610;2022-09-21T07:22:47;97916.53;;;12.57;66.18
4199;BME280;2113;50.946;14.610;2022-09-21T07:25:15;97921.84;;;12.82;65.38
4199;BME280;2113;50.946;14.610;2022-09-21T07:27:43;97928.69;;;12.58;65.79
4199;BME280;2113;50.946;14.610;2022-09-21T07:30:13;97928.09;;;12.77;65.54
4199;BME280;2113;50.946;14.610;2022-09-21T07:32:41;97930.84;;;12.44;66.32
4199;BME280;2113;50.946;14.610;2022-09-21T07:35:09;97923.75;;;13.30;64.60
4199;BME280;2113;50.946;14.610;2022-09-21T07:37:37;97924.34;;;14.35;61.72
4199;BME280;2113;50.946;14.610;2022-09-21T07:40:08;97925.72;;;13.74;62.10
4199;BME280;2113;50.946;14.610;2022-09-21T07:42:36;97933.84;;;13.15;63.11
4199;BME280;2113;50.946;14.610;2022-09-21T07:45:04;97937.41;;;13.39;62.90
4199;BME280;2113;50.946;14.610;2022-09-21T07:47:33;97941.41;;;12.96;64.06
4199;BME280;2113;50.946;14.610;2022-09-21T07:50:01;97946.50;;;12.72;65.43
4199;BME280;2113;50.946;14.610;2022-09-21T07:52:29;97952.97;;;12.60;65.76
4199;BME280;2113;50.946;14.610;2022-09-21T07:54:58;97931.81;;;12.69;65.50
4199;BME280;2113;50.946;14.610;2022-09-21T07:57:28;97947.78;;;13.13;64.56
4199;BME280;2113;50.946;14.610;2022-09-21T08:00:13;97950.72;;;13.29;64.04
4199;BME280;2113;50.946;14.610;2022-09-21T08:02:41;97945.28;;;13.37;63.68
4199;BME280;2113;50.946;14.610;2022-09-21T08:05:13;97954.00;;;13.63;62.89
4199;BME280;2113;50.946;14.610;2022-09-21T08:07:41;97950.44;;;13.12;63.61
4199;BME280;2113;50.946;14.610;2022-09-21T08:10:09;97952.84;;;13.45;63.57
4199;BME280;2113;50.946;14.610;2022-09-21T08:12:39;97961.41;;;13.75;62.77
4199;BME280;2113;50.946;14.610;2022-09-21T08:15:09;97963.38;;;13.43;62.84
4199;BME280;2113;50.946;14.610;2022-09-21T08:17:57;97949.72;;;14.33;61.91
4199;BME280;2113;50.946;14.610;2022-09-21T08:20:26;97942.84;;;16.78;55.00
4199;BME280;2113;50.946;14.610;2022-09-21T08:22:55;97945.81;;;17.60;51.64
4199;BME280;2113;50.946;14.610;2022-09-21T09:09:21;97961.00;;;19.80;43.90
4199;BME280;2113;50.946;14.610;2022-09-21T09:12:09;97958.59;;;18.19;47.78
4199;BME280;2113;50.946;14.610;2022-09-21T09:14:54;97966.47;;;16.97;51.06
4199;BME280;2113;50.946;14.610;2022-09-21T09:17:35;97973.78;;;16.33;51.72
4199;BME280;2113;50.946;14.610;2022-09-21T09:20:10;97972.63;;;15.80;53.88
4199;BME280;2113;50.946;14.610;2022-09-21T09:22:43;97976.38;;;16.14;53.41
4199;BME280;2113;50.946;14.610;2022-09-21T09:25:18;97974.47;;;17.13;50.92
4199;BME280;2113;50.946;14.610;2022-09-21T09:27:49;97968.59;;;18.28;48.20
4199;BME280;2113;50.946;14.610;2022-09-21T09:30:20;97964.78;;;19.29;44.88
4199;BME280;2113;50.946;14.610;2022-09-21T09:32:53;97965.53;;;18.36;47.58
4199;BME280;2113;50.946;14.610;2022-09-21T09:35:27;97956.38;;;20.55;43.07
4199;BME280;2113;50.946;14.610;2022-09-21T09:37:58;97953.97;;;21.74;39.04
4199;BME280;2113;50.946;14.610;2022-09-21T09:40:43;97954.13;;;21.45;38.85
4199;BME280;2113;50.946;14.610;2022-09-21T09:43:22;97943.13;;;22.54;38.36
4199;BME280;2113;50.946;14.610;2022-09-21T09:46:03;97949.09;;;21.93;38.55
4199;BME280;2113;50.946;14.610;2022-09-21T09:48:48;97945.47;;;24.13;35.03
4199;BME280;2113;50.946;14.610;2022-09-21T09:51:21;97940.25;;;23.42;35.32
4199;BME280;2113;50.946;14.610;2022-09-21T09:53:50;97939.00;;;22.24;36.66
4199;BME280;2113;50.946;14.610;2022-09-21T09:56:19;97950.38;;;20.95;39.87
4199;BME280;2113;50.946;14.610;2022-09-21T09:58:51;97949.13;;;20.30;40.81
4199;BME280;2113;50.946;14.610;2022-09-21T10:01:37;97946.09;;;20.36;41.33
4199;BME280;2113;50.946;14.610;2022-09-21T10:04:08;97956.91;;;19.13;44.87
4199;BME280;2113;50.946;14.610;2022-09-21T10:06:37;97954.44;;;17.97;46.04
4199;BME280;2113;50.946;14.610;2022-09-21T10:09:27;97953.69;;;18.45;46.41
4199;BME280;2113;50.946;14.610;2022-09-21T10:12:00;97942.63;;;18.38;47.59
4199;BME280;2113;50.946;14.610;2022-09-21T10:14:35;97947.56;;;18.76;47.70
4199;BME280;2113;50.946;14.610;2022-09-21T10:17:05;97951.50;;;17.86;47.16
4199;BME280;2113;50.946;14.610;2022-09-21T10:19:34;97953.31;;;17.51;49.70
4199;BME280;2113;50.946;14.610;2022-09-21T10:22:04;97951.88;;;16.91;52.02
4199;BME280;2113;50.946;14.610;2022-09-21T10:24:35;97950.06;;;16.16;51.81
4199;BME280;2113;50.946;14.610;2022-09-21T10:27:10;97954.66;;;15.71;54.08
4199;BME280;2113;50.946;14.610;2022-09-21T10:29:41;97949.81;;;15.82;53.98
4199;BME280;2113;50.946;14.610;2022-09-21T10:32:19;97952.78;;;15.75;53.78
4199;BME280;2113;50.946;14.610;2022-09-21T10:35:13;97952.59;;;15.98;53.14
4199;BME280;2113;50.946;14.610;2022-09-21T10:37:42;97948.91;;;16.42;51.74
4199;BME280;2113;50.946;14.610;2022-09-21T10:40:25;97944.47;;;16.23;53.05
4199;BME280;2113;50.946;14.610;2022-09-21T10:42:55;97942.94;;;16.19;52.25
4199;BME280;2113;50.946;14.610;2022-09-21T10:45:27;97939.66;;;16.71;52.79
4199;BME280;2113;50.946;14.610;2022-09-21T10:47:56;97935.84;;;16.59;52.88
4199;BME280;2113;50.946;14.610;2022-09-21T10:50:27;97934.25;;;16.93;51.56
4199;BME280;2113;50.946;14.610;2022-09-21T10:52:59;97943.25;;;17.41;51.00
4199;BME280;2113;50.946;14.610;2022-09-21T10:55:29;97941.09;;;17.32;50.89
4199;BME280;2113;50.946;14.610;2022-09-21T10:57:59;97944.13;;;16.88;50.62
4199;BME280;2113;50.946;14.610;2022-09-21T11:00:33;97944.00;;;17.09;49.14
4199;BME280;2113;50.946;14.610;2022-09-21T11:03:32;97939.28;;;17.15;48.85
4199;BME280;2113;50.946;14.610;2022-09-21T11:06:08;97935.75;;;17.51;49.70
4199;BME280;2113;50.946;14.610;2022-09-21T11:08:42;97941.53;;;17.23;49.68
4199;BME280;2113;50.946;14.610;2022-09-21T11:11:28;97931.78;;;17.77;48.83
4199;BME280;2113;50.946;14.610;2022-09-21T11:14:08;97933.75;;;17.39;49.83
4199;BME280;2113;50.946;14.610;2022-09-21T11:16:40;97932.25;;;17.86;47.08
4199;BME280;2113;50.946;14.610;2022-09-21T11:19:18;97935.13;;;17.64;47.93
4199;BME280;2113;50.946;14.610;2022-09-21T11:21:52;97932.41;;;18.00;47.74
4199;BME280;2113;50.946;14.610;2022-09-21T11:24:27;97925.59;;;17.78;46.18
4199;BME280;2113;50.946;14.610;2022-09-21T11:27:02;97928.91;;;17.82;47.92
4199;BME280;2113;50.946;14.610;2022-09-21T11:29:38;97930.41;;;17.88;44.92
4199;BME280;2113;50.946;14.610;2022-09-21T11:32:28;97924.31;;;17.35;46.49
4199;BME280;2113;50.946;14.610;2022-09-21T11:35:17;97922.88;;;17.97;45.81
4199;BME280;2113;50.946;14.610;2022-09-21T11:37:57;97923.53;;;17.85;45.90
4199;BME280;2113;50.946;14.610;2022-09-21T11:40:47;97936.31;;;17.58;45.93
4199;BME280;2113;50.946;14.610;2022-09-21T11:43:32;97926.09;;;17.34;47.55
4199;BME280;2113;50.946;14.610;2022-09-21T11:46:14;97937.69;;;17.30;48.70
4199;BME280;2113;50.946;14.610;2022-09-21T11:48:54;97928.38;;;17.06;49.59
4199;BME280;2113;50.946;14.610;2022-09-21T11:51:36;97935.66;;;17.70;49.42
4199;BME280;2113;50.946;14.610;2022-09-21T11:54:17;97927.56;;;17.40;49.73
4199;BME280;2113;50.946;14.610;2022-09-21T11:56:53;97930.09;;;17.07;49.43
4199;BME280;2113;50.946;14.610;2022-09-21T11:59:37;97925.63;;;17.26;47.81
4199;BME280;2113;50.946;14.610;2022-09-21T12:02:28;97923.94;;;17.60;47.01
4199;BME280;2113;50.946;14.610;2022-09-21T12:05:03;97921.09;;;17.98;47.43
4199;BME280;2113;50.946;14.610;2022-09-21T12:07:49;97923.22;;;17.56;49.24
4199;BME280;2113;50.946;14.610;2022-09-21T12:10:37;97916.66;;;16.95;49.28
4199;BME280;2113;50.946;14.610;2022-09-21T12:13:16;97914.25;;;17.60;48.73
4199;BME280;2113;50.946;14.610;2022-09-21T12:15:52;97896.59;;;18.45;47.65
4199;BME280;2113;50.946;14.610;2022-09-21T12:18:28;97902.13;;;18.56;44.79
4199;BME280;2113;50.946;14.610;2022-09-21T12:21:02;97897.78;;;18.87;45.59
4199;BME280;2113;50.946;14.610;2022-09-21T12:23:37;97900.97;;;19.39;45.27
4199;BME280;2113;50.946;14.610;2022-09-21T12:26:07;97900.00;;;18.79;44.07
4199;BME280;2113;50.946;14.610;2022-09-21T12:28:39;97895.19;;;18.55;43.87
4199;BME280;2113;50.946;14.610;2022-09-21T12:31:34;97906.78;;;17.86;45.41
4199;BME280;2113;50.946;14.610;2022-09-21T12:34:12;97897.66;;;17.93;43.69
4199;BME280;2113;50.946;14.610;2022-09-21T12:36:46;97895.38;;;18.03;44.00
4199;BME280;2113;50.946;14.610;2022-09-21T12:39:19;97895.94;;;18.57;41.75
4199;BME280;2113;50.946;14.610;2022-09-21T12:41:52;97894.69;;;19.11;44.42
4199;BME280;2113;50.946;14.610;2022-09-21T12:44:27;97893.91;;;19.84;41.22
4199;BME280;2113;50.946;14.610;2022-09-21T12:47:02;97895.69;;;19.24;42.46
4199;BME280;2113;50.946;14.610;2022-09-21T12:49:47;97890.97;;;19.29;43.29
4199;BME280;2113;50.946;14.610;2022-09-21T12:52:20;97892.19;;;20.11;42.82
4199;BME280;2113;50.946;14.610;2022-09-21T12:54:54;97890.97;;;19.29;42.03
4199;BME280;2113;50.946;14.610;2022-09-21T12:57:30;97894.50;;;19.14;44.47
4199;BME280;2113;50.946;14.610;2022-09-21T13:00:25;97900.50;;;18.38;44.00
4199;BME280;2113;50.946;14.610;2022-09-21T13:03:02;97896.16;;;17.54;45.37
4199;BME280;2113;50.946;14.610;2022-09-21T13:05:45;97895.28;;;17.71;47.50
4199;BME280;2113;50.946;14.610;2022-09-21T13:08:23;97902.13;;;17.06;48.26
4199;BME280;2113;50.946;14.610;2022-09-21T13:10:59;97896.06;;;16.86;48.53
4199;BME280;2113;50.946;14.610;2022-09-21T13:13:33;97904.81;;;16.68;50.10
4199;BME280;2113;50.946;14.610;2022-09-21T13:16:02;97901.28;;;16.69;51.98
4199;BME280;2113;50.946;14.610;2022-09-21T13:18:33;97896.78;;;17.07;50.04
4199;BME280;2113;50.946;14.610;2022-09-21T13:21:16;97896.16;;;17.02;48.90
4199;BME280;2113;50.946;14.610;2022-09-21T13:23:51;97891.47;;;17.09;47.76
4199;BME280;2113;50.946;14.610;2022-09-21T13:26:29;97898.03;;;17.35;48.20
4199;BME280;2113;50.946;14.610;2022-09-21T13:29:02;97892.75;;;18.03;47.33
4199;BME280;2113;50.946;14.610;2022-09-21T13:31:50;97899.81;;;17.17;48.58
4199;BME280;2113;50.946;14.610;2022-09-21T13:34:34;97908.75;;;16.40;48.90
4199;BME280;2113;50.946;14.610;2022-09-21T13:37:33;97915.91;;;14.74;53.21
4199;BME280;2113;50.946;14.610;2022-09-21T13:43:23;97921.31;;;13.76;58.05
4199;BME280;2113;50.946;14.610;2022-09-21T13:45:55;97913.19;;;13.84;56.91
4199;BME280;2113;50.946;14.610;2022-09-21T13:48:26;97910.50;;;14.09;57.33
4199;BME280;2113;50.946;14.610;2022-09-21T13:50:58;97901.97;;;14.27;57.60
4199;BME280;2113;50.946;14.610;2022-09-21T13:53:34;97899.41;;;14.48;57.41
4199;BME280;2113;50.946;14.610;2022-09-21T13:56:07;97900.00;;;14.56;57.88
4199;BME280;2113;50.946;14.610;2022-09-21T13:58:41;97886.84;;;15.22;57.52
4199;BME280;2113;50.946;14.610;2022-09-21T14:01:15;97889.00;;;15.33;56.07
4199;BME280;2113;50.946;14.610;2022-09-21T14:04:15;97885.72;;;15.69;54.74
4199;BME280;2113;50.946;14.610;2022-09-21T14:06:47;97900.13;;;15.79;55.50
4199;BME280;2113;50.946;14.610;2022-09-21T14:09:22;97889.31;;;16.06;54.14
4199;BME280;2113;50.946;14.610;2022-09-21T14:11:57;97889.00;;;16.50;54.52
4199;BME280;2113;50.946;14.610;2022-09-21T14:14:28;97885.91;;;16.42;54.01
4199;BME280;2113;50.946;14.610;2022-09-21T14:16:58;97888.47;;;16.43;53.73
4199;BME280;2113;50.946;14.610;2022-09-21T14:22:37;97881.47;;;16.61;55.07
4199;BME280;2113;50.946;14.610;2022-09-21T14:25:25;97882.59;;;16.75;54.66
4199;BME280;2113;50.946;14.610;2022-09-21T14:27:58;97882.72;;;16.91;53.42
4199;BME280;2113;50.946;14.610;2022-09-21T14:30:28;97882.97;;;17.03;53.61
4199;BME280;2113;50.946;14.610;2022-09-21T14:33:09;97877.94;;;17.16;53.63
4199;BME280;2113;50.946;14.610;2022-09-21T14:35:42;97871.69;;;17.01;54.17
4199;BME280;2113;50.946;14.610;2022-09-21T14:38:17;97869.81;;;17.38;53.55